sensor_id;sensor_type;location;lat;lon;timestamp;temperature;humidity
54264;DHT22;40178;53.042;6.406;2022-11-12T00:00:23;5.40;99.90
54264;DHT22;40178;53.042;6.406;2022-11-12T00:02:49;5.40;99.90
54264;DHT22;40178;53.042;6.406;2022-11-12T00:05:15;5.50;99.90
54264;DHT22;40178;53.042;6.406;2022-11-12T00:07:40;5.50;99.90
54264;DHT22;40178;53.042;6.406;2022-11-12T00:10:06;5.50;99.90
54264;DHT22;40178;53.042;6.406;2022-11-12T00:12:32;5.50;99.90
54264;DHT22;40178;53.042;6.406;2022-11-12T00:14:57;5.60;99.90
54264;DHT22;40178;53.042;6.406;2022-11-12T00:17:23;5.50;99.90
54264;DHT22;40178;53.042;6.406;2022-11-12T00:19:48;5.50;99.90
54264;DHT22;40178;53.042;6.406;2022-11-12T00:22:14;5.60;99.90
54264;DHT22;40178;53.042;6.406;2022-11-12T00:24:40;5.60;99.90
54264;DHT22;40178;53.042;6.406;2022-11-12T00:27:05;5.50;99.90
54264;DHT22;40178;53.042;6.406;2022-11-12T00:29:31;5.50;99.90
54264;DHT22;40178;53.042;6.406;2022-11-12T00:31:56;5.50;99.90
54264;DHT22;40178;53.042;6.406;2022-11-12T00:34:22;5.60;99.90
54264;DHT22;40178;53.042;6.406;2022-11-12T00:36:47;5.40;99.90
54264;DHT22;40178;53.042;6.406;2022-11-12T00:39:13;5.50;99.90
54264;DHT22;40178;53.042;6.406;2022-11-12T00:41:39;5.50;99.90
54264;DHT22;40178;53.042;6.406;2022-11-12T00:44:04;5.50;99.90
54264;DHT22;40178;53.042;6.406;2022-11-12T00:46:30;5.40;99.90
54264;DHT22;40178;53.042;6.406;2022-11-12T00:48:55;5.40;99.90
54264;DHT22;40178;53.042;6.406;2022-11-12T00:51:21;5.30;99.90
54264;DHT22;40178;53.042;6.406;2022-11-12T00:53:48;5.30;99.90
54264;DHT22;40178;53.042;6.406;2022-11-12T00:56:14;5.40;99.90
54264;DHT22;40178;53.042;6.406;2022-11-12T00:58:40;5.40;99.90
54264;DHT22;40178;53.042;6.406;2022-11-12T01:01:08;5.40;99.90
54264;DHT22;40178;53.042;6.406;2022-11-12T01:03:35;5.50;99.90
54264;DHT22;40178;53.042;6.406;2022-11-12T01:06:06;5.60;99.90
54264;DHT22;40178;53.042;6.406;2022-11-12T01:08:32;5.50;99.90
54264;DHT22;40178;53.042;6.406;2022-11-12T01:11:27;5.60;99.90
54264;DHT22;40178;53.042;6.406;2022-11-12T01:13:59;5.50;99.90
54264;DHT22;40178;53.042;6.406;2022-11-12T01:16:28;5.50;99.90
54264;DHT22;40178;53.042;6.406;2022-11-12T01:18:57;5.60;99.90
54264;DHT22;40178;53.042;6.406;2022-11-12T01:21:25;5.60;99.90
54264;DHT22;40178;53.042;6.406;2022-11-12T01:23:51;5.70;99.90
54264;DHT22;40178;53.042;6.406;2022-11-12T01:26:20;5.50;99.90
54264;DHT22;40178;53.042;6.406;2022-11-12T01:28:46;5.60;99.90
54264;DHT22;40178;53.042;6.406;2022-11-12T01:31:18;5.60;99.90
54264;DHT22;40178;53.042;6.406;2022-11-12T01:33:47;5.60;99.90
54264;DHT22;40178;53.042;6.406;2022-11-12T01:36:14;5.40;99.90
54264;DHT22;40178;53.042;6.406;2022-11-12T01:38:41;5.50;99.90
54264;DHT22;40178;53.042;6.406;2022-11-12T01:41:10;5.40;99.90
54264;DHT22;40178;53.042;6.406;2022-11-12T01:43:36;5.40;99.90
54264;DHT22;40178;53.042;6.406;2022-11-12T01:46:05;5.50;99.90
54264;DHT22;40178;53.042;6.406;2022-11-12T01:48:37;5.50;99.90
54264;DHT22;40178;53.042;6.406;2022-11-12T01:51:04;5.50;99.90
54264;DHT22;40178;53.042;6.406;2022-11-12T01:53:35;5.40;99.90
54264;DHT22;40178;53.042;6.406;2022-11-12T01:56:04;5.30;99.90
54264;DHT22;40178;53.042;6.406;2022-11-12T01:58:31;5.30;99.90
54264;DHT22;40178;53.042;6.406;2022-11-12T02:00:59;5.30;99.90
54264;DHT22;40178;53.042;6.406;2022-11-12T02:03:26;5.30;99.90
54264;DHT22;40178;53.042;6.406;2022-11-12T02:05:56;5.10;99.90
54264;DHT22;40178;53.042;6.406;2022-11-12T02:08:23;5.00;99.90
54264;DHT22;40178;53.042;6.406;2022-11-12T02:10:49;5.00;99.90
54264;DHT22;40178;53.042;6.406;2022-11-12T02:13:16;4.90;99.90
54264;DHT22;40178;53.042;6.406;2022-11-12T02:16:02;5.00;99.90
54264;DHT22;40178;53.042;6.406;2022-11-12T02:18:28;5.00;99.90
54264;DHT22;40178;53.042;6.406;2022-11-12T02:20:58;5.10;99.90
54264;DHT22;40178;53.042;6.406;2022-11-12T02:23:27;4.90;99.90
54264;DHT22;40178;53.042;6.406;2022-11-12T02:25:53;5.00;99.90
54264;DHT22;40178;53.042;6.406;2022-11-12T02:28:19;4.90;99.90
54264;DHT22;40178;53.042;6.406;2022-11-12T02:30:47;4.90;99.90
54264;DHT22;40178;53.042;6.406;2022-11-12T02:33:13;5.00;99.90
54264;DHT22;40178;53.042;6.406;2022-11-12T02:35:39;5.10;99.90
54264;DHT22;40178;53.042;6.406;2022-11-12T02:38:06;5.10;99.90
54264;DHT22;40178;53.042;6.406;2022-11-12T02:40:32;5.00;99.90
54264;DHT22;40178;53.042;6.406;2022-11-12T02:42:57;5.00;99.90
54264;DHT22;40178;53.042;6.406;2022-11-12T02:45:23;4.90;99.90
54264;DHT22;40178;53.042;6.406;2022-11-12T02:47:49;4.80;99.90
54264;DHT22;40178;53.042;6.406;2022-11-12T02:50:15;4.90;99.90
54264;DHT22;40178;53.042;6.406;2022-11-12T02:52:40;4.90;99.90
54264;DHT22;40178;53.042;6.406;2022-11-12T02:55:07;4.80;99.90
54264;DHT22;40178;53.042;6.406;2022-11-12T02:57:34;4.60;99.90
54264;DHT22;40178;53.042;6.406;2022-11-12T03:00:00;4.70;99.90
54264;DHT22;40178;53.042;6.406;2022-11-12T03:02:25;4.70;99.90
54264;DHT22;40178;53.042;6.406;2022-11-12T03:04:51;4.60;99.90
54264;DHT22;40178;53.042;6.406;2022-11-12T03:07:16;4.40;99.90
54264;DHT22;40178;53.042;6.406;2022-11-12T03:09:42;4.30;99.90
54264;DHT22;40178;53.042;6.406;2022-11-12T03:12:07;4.20;99.90
54264;DHT22;40178;53.042;6.406;2022-11-12T03:14:33;4.30;99.90
54264;DHT22;40178;53.042;6.406;2022-11-12T03:16:58;4.20;99.90
54264;DHT22;40178;53.042;6.406;2022-11-12T03:19:24;4.20;99.90
54264;DHT22;40178;53.042;6.406;2022-11-12T03:21:49;4.20;99.90
54264;DHT22;40178;53.042;6.406;2022-11-12T03:24:15;4.10;99.90
54264;DHT22;40178;53.042;6.406;2022-11-12T03:26:40;4.10;99.90
54264;DHT22;40178;53.042;6.406;2022-11-12T03:29:06;4.20;99.90
54264;DHT22;40178;53.042;6.406;2022-11-12T03:31:32;4.00;99.90
54264;DHT22;40178;53.042;6.406;2022-11-12T03:33:57;4.00;99.90
54264;DHT22;40178;53.042;6.406;2022-11-12T03:36:23;4.10;99.90
54264;DHT22;40178;53.042;6.406;2022-11-12T03:38:48;4.00;99.90
54264;DHT22;40178;53.042;6.406;2022-11-12T03:41:14;4.20;99.90
54264;DHT22;40178;53.042;6.406;2022-11-12T03:43:39;4.10;99.90
54264;DHT22;40178;53.042;6.406;2022-11-12T03:46:05;4.00;99.90
54264;DHT22;40178;53.042;6.406;2022-11-12T03:48:30;4.20;99.90
54264;DHT22;40178;53.042;6.406;2022-11-12T03:50:57;4.10;99.90
54264;DHT22;40178;53.042;6.406;2022-11-12T03:53:23;4.20;99.90
54264;DHT22;40178;53.042;6.406;2022-11-12T03:55:49;4.20;99.90
54264;DHT22;40178;53.042;6.406;2022-11-12T03:58:14;4.30;99.90
54264;DHT22;40178;53.042;6.406;2022-11-12T04:00:40;4.10;99.90
54264;DHT22;40178;53.042;6.406;2022-11-12T04:03:06;4.00;99.90
54264;DHT22;40178;53.042;6.406;2022-11-12T04:05:31;3.90;99.90
54264;DHT22;40178;53.042;6.406;2022-11-12T04:08:18;3.80;99.90
54264;DHT22;40178;53.042;6.406;2022-11-12T04:11:06;3.70;99.90
54264;DHT22;40178;53.042;6.406;2022-11-12T04:13:32;3.50;99.90
54264;DHT22;40178;53.042;6.406;2022-11-12T04:18:47;3.50;99.90
54264;DHT22;40178;53.042;6.406;2022-11-12T04:21:46;3.50;99.90
54264;DHT22;40178;53.042;6.406;2022-11-12T04:24:18;3.50;99.90
54264;DHT22;40178;53.042;6.406;2022-11-12T04:27:03;3.40;99.90
54264;DHT22;40178;53.042;6.406;2022-11-12T04:29:29;3.50;99.90
54264;DHT22;40178;53.042;6.406;2022-11-12T04:32:14;3.40;99.90
54264;DHT22;40178;53.042;6.406;2022-11-12T04:34:39;3.50;99.90
54264;DHT22;40178;53.042;6.406;2022-11-12T04:37:05;3.50;99.90
54264;DHT22;40178;53.042;6.406;2022-11-12T04:39:31;3.40;99.90
54264;DHT22;40178;53.042;6.406;2022-11-12T04:41:57;3.20;99.90
54264;DHT22;40178;53.042;6.406;2022-11-12T04:44:41;3.30;99.90
54264;DHT22;40178;53.042;6.406;2022-11-12T04:47:32;3.30;99.90
54264;DHT22;40178;53.042;6.406;2022-11-12T04:49:58;3.10;99.90
54264;DHT22;40178;53.042;6.406;2022-11-12T04:52:25;3.10;99.90
54264;DHT22;40178;53.042;6.406;2022-11-12T04:54:52;3.10;99.90
54264;DHT22;40178;53.042;6.406;2022-11-12T04:57:18;3.10;99.90
54264;DHT22;40178;53.042;6.406;2022-11-12T04:59:43;3.20;99.90
54264;DHT22;40178;53.042;6.406;2022-11-12T05:02:09;3.50;99.90
54264;DHT22;40178;53.042;6.406;2022-11-12T05:04:34;3.40;99.90
54264;DHT22;40178;53.042;6.406;2022-11-12T05:07:00;3.60;99.90
54264;DHT22;40178;53.042;6.406;2022-11-12T05:09:27;3.40;99.90
54264;DHT22;40178;53.042;6.406;2022-11-12T05:11:54;3.50;99.90
54264;DHT22;40178;53.042;6.406;2022-11-12T05:14:20;3.30;99.90
54264;DHT22;40178;53.042;6.406;2022-11-12T05:16:46;3.40;99.90
54264;DHT22;40178;53.042;6.406;2022-11-12T05:19:12;3.30;99.90
54264;DHT22;40178;53.042;6.406;2022-11-12T05:21:38;3.20;99.90
54264;DHT22;40178;53.042;6.406;2022-11-12T05:24:23;3.20;99.90
54264;DHT22;40178;53.042;6.406;2022-11-12T05:26:48;3.30;99.90
54264;DHT22;40178;53.042;6.406;2022-11-12T05:29:14;3.30;99.90
54264;DHT22;40178;53.042;6.406;2022-11-12T05:31:39;3.40;99.90
54264;DHT22;40178;53.042;6.406;2022-11-12T05:34:05;3.40;99.90
54264;DHT22;40178;53.042;6.406;2022-11-12T05:36:30;3.40;99.90
54264;DHT22;40178;53.042;6.406;2022-11-12T05:38:56;3.30;99.90
54264;DHT22;40178;53.042;6.406;2022-11-12T05:41:22;3.40;99.90
54264;DHT22;40178;53.042;6.406;2022-11-12T05:43:47;3.40;99.90
54264;DHT22;40178;53.042;6.406;2022-11-12T05:46:13;3.30;99.90
54264;DHT22;40178;53.042;6.406;2022-11-12T05:48:38;3.30;99.90
54264;DHT22;40178;53.042;6.406;2022-11-12T05:51:04;3.30;99.90
54264;DHT22;40178;53.042;6.406;2022-11-12T05:53:29;3.40;99.90
54264;DHT22;40178;53.042;6.406;2022-11-12T05:56:05;3.40;99.90
54264;DHT22;40178;53.042;6.406;2022-11-12T05:58:31;3.50;99.90
54264;DHT22;40178;53.042;6.406;2022-11-12T06:00:58;3.70;99.90
54264;DHT22;40178;53.042;6.406;2022-11-12T06:03:24;3.70;99.90
54264;DHT22;40178;53.042;6.406;2022-11-12T06:05:50;3.70;99.90
54264;DHT22;40178;53.042;6.406;2022-11-12T06:08:17;3.70;99.90
54264;DHT22;40178;53.042;6.406;2022-11-12T06:10:50;3.80;99.90
54264;DHT22;40178;53.042;6.406;2022-11-12T06:13:16;4.00;99.90
54264;DHT22;40178;53.042;6.406;2022-11-12T06:15:42;3.90;99.90
54264;DHT22;40178;53.042;6.406;2022-11-12T06:18:08;3.90;99.90
54264;DHT22;40178;53.042;6.406;2022-11-12T06:20:34;4.00;99.90
54264;DHT22;40178;53.042;6.406;2022-11-12T06:22:59;4.10;99.90
54264;DHT22;40178;53.042;6.406;2022-11-12T06:25:25;4.20;99.90
54264;DHT22;40178;53.042;6.406;2022-11-12T06:27:51;4.30;99.90
54264;DHT22;40178;53.042;6.406;2022-11-12T06:30:17;4.20;99.90
54264;DHT22;40178;53.042;6.406;2022-11-12T06:32:46;4.20;99.90
54264;DHT22;40178;53.042;6.406;2022-11-12T06:35:12;4.50;99.90
54264;DHT22;40178;53.042;6.406;2022-11-12T06:37:38;4.50;99.90
54264;DHT22;40178;53.042;6.406;2022-11-12T06:40:04;4.50;99.90
54264;DHT22;40178;53.042;6.406;2022-11-12T06:42:30;4.50;99.90
54264;DHT22;40178;53.042;6.406;2022-11-12T06:44:55;4.60;99.90
54264;DHT22;40178;53.042;6.406;2022-11-12T06:47:21;4.70;99.90
54264;DHT22;40178;53.042;6.406;2022-11-12T06:49:46;4.90;99.90
54264;DHT22;40178;53.042;6.406;2022-11-12T06:52:14;4.70;99.90
54264;DHT22;40178;53.042;6.406;2022-11-12T06:54:39;4.90;99.90
54264;DHT22;40178;53.042;6.406;2022-11-12T06:57:05;5.00;99.90
54264;DHT22;40178;53.042;6.406;2022-11-12T06:59:30;5.10;99.90
54264;DHT22;40178;53.042;6.406;2022-11-12T07:01:56;5.00;99.90
54264;DHT22;40178;53.042;6.406;2022-11-12T07:04:23;5.00;99.90
54264;DHT22;40178;53.042;6.406;2022-11-12T07:06:48;5.00;99.90
54264;DHT22;40178;53.042;6.406;2022-11-12T07:09:14;5.30;99.90
54264;DHT22;40178;53.042;6.406;2022-11-12T07:11:39;5.30;99.90
54264;DHT22;40178;53.042;6.406;2022-11-12T07:14:05;5.30;99.90
54264;DHT22;40178;53.042;6.406;2022-11-12T07:16:32;5.20;99.90
54264;DHT22;40178;53.042;6.406;2022-11-12T07:18:57;5.40;99.90
54264;DHT22;40178;53.042;6.406;2022-11-12T07:21:23;5.40;99.90
54264;DHT22;40178;53.042;6.406;2022-11-12T07:23:48;5.50;99.90
54264;DHT22;40178;53.042;6.406;2022-11-12T07:26:16;5.50;99.90
54264;DHT22;40178;53.042;6.406;2022-11-12T07:28:43;5.40;99.90
54264;DHT22;40178;53.042;6.406;2022-11-12T07:31:10;5.70;99.90
54264;DHT22;40178;53.042;6.406;2022-11-12T07:33:36;5.70;99.90
54264;DHT22;40178;53.042;6.406;2022-11-12T07:38:31;5.70;99.90
54264;DHT22;40178;53.042;6.406;2022-11-12T07:41:18;5.90;99.90
54264;DHT22;40178;53.042;6.406;2022-11-12T07:43:46;5.90;99.90
54264;DHT22;40178;53.042;6.406;2022-11-12T07:46:21;5.80;99.90
54264;DHT22;40178;53.042;6.406;2022-11-12T07:48:46;5.90;99.90
54264;DHT22;40178;53.042;6.406;2022-11-12T07:51:26;5.90;99.90
54264;DHT22;40178;53.042;6.406;2022-11-12T07:53:53;5.80;99.90
54264;DHT22;40178;53.042;6.406;2022-11-12T07:56:21;6.00;99.90
54264;DHT22;40178;53.042;6.406;2022-11-12T07:58:47;6.00;99.90
54264;DHT22;40178;53.042;6.406;2022-11-12T08:01:33;5.80;99.90
54264;DHT22;40178;53.042;6.406;2022-11-12T08:04:00;5.90;99.90
54264;DHT22;40178;53.042;6.406;2022-11-12T08:06:26;6.00;99.90
54264;DHT22;40178;53.042;6.406;2022-11-12T08:08:53;5.90;99.90
54264;DHT22;40178;53.042;6.406;2022-11-12T08:11:19;6.00;99.90
54264;DHT22;40178;53.042;6.406;2022-11-12T08:13:48;6.40;99.90
54264;DHT22;40178;53.042;6.406;2022-11-12T08:16:14;6.50;99.90
54264;DHT22;40178;53.042;6.406;2022-11-12T08:18:46;5.90;99.90
54264;DHT22;40178;53.042;6.406;2022-11-12T08:21:17;6.00;99.90
54264;DHT22;40178;53.042;6.406;2022-11-12T08:23:43;6.70;99.90
54264;DHT22;40178;53.042;6.406;2022-11-12T08:26:14;6.00;99.90
54264;DHT22;40178;53.042;6.406;2022-11-12T08:28:40;6.20;99.90
54264;DHT22;40178;53.042;6.406;2022-11-12T08:31:14;6.00;99.90
54264;DHT22;40178;53.042;6.406;2022-11-12T08:33:41;6.00;99.90
54264;DHT22;40178;53.042;6.406;2022-11-12T08:36:09;6.10;99.90
54264;DHT22;40178;53.042;6.406;2022-11-12T08:38:35;6.10;99.90
54264;DHT22;40178;53.042;6.406;2022-11-12T08:41:08;6.30;99.90
54264;DHT22;40178;53.042;6.406;2022-11-12T08:43:35;6.20;99.90
54264;DHT22;40178;53.042;6.406;2022-11-12T08:46:02;6.40;99.90
54264;DHT22;40178;53.042;6.406;2022-11-12T08:48:28;6.40;99.90
54264;DHT22;40178;53.042;6.406;2022-11-12T08:50:54;6.30;99.90
54264;DHT22;40178;53.042;6.406;2022-11-12T08:53:22;6.50;99.90
54264;DHT22;40178;53.042;6.406;2022-11-12T08:55:48;6.40;99.90
54264;DHT22;40178;53.042;6.406;2022-11-12T08:58:13;6.40;99.90
54264;DHT22;40178;53.042;6.406;2022-11-12T09:00:41;6.50;99.90
54264;DHT22;40178;53.042;6.406;2022-11-12T09:03:12;6.50;99.90
54264;DHT22;40178;53.042;6.406;2022-11-12T09:05:38;6.50;99.90
54264;DHT22;40178;53.042;6.406;2022-11-12T09:08:07;6.50;99.90
54264;DHT22;40178;53.042;6.406;2022-11-12T09:10:33;6.60;99.90
54264;DHT22;40178;53.042;6.406;2022-11-12T09:12:59;6.60;99.90
54264;DHT22;40178;53.042;6.406;2022-11-12T09:15:25;6.80;99.90
54264;DHT22;40178;53.042;6.406;2022-11-12T09:17:59;6.70;99.90
54264;DHT22;40178;53.042;6.406;2022-11-12T09:20:26;6.80;99.90
54264;DHT22;40178;53.042;6.406;2022-11-12T09:22:55;6.90;99.90
54264;DHT22;40178;53.042;6.406;2022-11-12T09:25:22;6.90;99.90
54264;DHT22;40178;53.042;6.406;2022-11-12T09:27:47;7.00;99.90
54264;DHT22;40178;53.042;6.406;2022-11-12T09:30:13;6.90;99.90
54264;DHT22;40178;53.042;6.406;2022-11-12T09:32:39;7.00;99.90
54264;DHT22;40178;53.042;6.406;2022-11-12T09:35:04;6.90;99.90
54264;DHT22;40178;53.042;6.406;2022-11-12T09:37:30;7.10;99.90
54264;DHT22;40178;53.042;6.406;2022-11-12T09:39:56;6.90;99.90
54264;DHT22;40178;53.042;6.406;2022-11-12T09:42:21;7.00;99.90
54264;DHT22;40178;53.042;6.406;2022-11-12T09:45:23;7.00;99.90
54264;DHT22;40178;53.042;6.406;2022-11-12T09:47:51;7.00;99.90
54264;DHT22;40178;53.042;6.406;2022-11-12T09:50:29;7.00;99.90
54264;DHT22;40178;53.042;6.406;2022-11-12T09:53:06;7.10;99.90
54264;DHT22;40178;53.042;6.406;2022-11-12T09:55:40;7.20;99.90
54264;DHT22;40178;53.042;6.406;2022-11-12T09:58:11;7.20;99.90
54264;DHT22;40178;53.042;6.406;2022-11-12T10:00:40;7.10;99.90
54264;DHT22;40178;53.042;6.406;2022-11-12T10:06:03;7.10;99.90
54264;DHT22;40178;53.042;6.406;2022-11-12T10:11:36;7.10;99.90
54264;DHT22;40178;53.042;6.406;2022-11-12T10:22:56;7.40;99.90
54264;DHT22;40178;53.042;6.406;2022-11-12T10:25:23;7.40;99.90
54264;DHT22;40178;53.042;6.406;2022-11-12T10:27:49;7.50;99.90
54264;DHT22;40178;53.042;6.406;2022-11-12T10:30:21;7.40;99.90
54264;DHT22;40178;53.042;6.406;2022-11-12T10:32:50;7.50;99.90
54264;DHT22;40178;53.042;6.406;2022-11-12T10:35:19;7.60;99.90
54264;DHT22;40178;53.042;6.406;2022-11-12T10:40:35;7.60;99.90
54264;DHT22;40178;53.042;6.406;2022-11-12T10:43:03;7.70;99.90
54264;DHT22;40178;53.042;6.406;2022-11-12T10:45:29;7.70;99.90
54264;DHT22;40178;53.042;6.406;2022-11-12T10:47:55;7.60;99.90
54264;DHT22;40178;53.042;6.406;2022-11-12T10:50:39;7.70;99.90
54264;DHT22;40178;53.042;6.406;2022-11-12T10:53:09;7.90;99.90
54264;DHT22;40178;53.042;6.406;2022-11-12T10:55:37;7.80;99.90
54264;DHT22;40178;53.042;6.406;2022-11-12T10:58:12;7.90;99.90
54264;DHT22;40178;53.042;6.406;2022-11-12T11:01:01;7.80;99.90
54264;DHT22;40178;53.042;6.406;2022-11-12T11:03:35;7.90;99.90
54264;DHT22;40178;53.042;6.406;2022-11-12T11:06:16;8.00;99.90
54264;DHT22;40178;53.042;6.406;2022-11-12T11:08:46;8.00;99.90
54264;DHT22;40178;53.042;6.406;2022-11-12T11:13:41;8.10;99.90
54264;DHT22;40178;53.042;6.406;2022-11-12T11:16:11;8.30;99.90
54264;DHT22;40178;53.042;6.406;2022-11-12T11:18:37;8.10;99.90
54264;DHT22;40178;53.042;6.406;2022-11-12T11:27:04;8.40;99.90
54264;DHT22;40178;53.042;6.406;2022-11-12T11:32:45;8.70;99.90
54264;DHT22;40178;53.042;6.406;2022-11-12T11:38:20;8.80;99.90
54264;DHT22;40178;53.042;6.406;2022-11-12T11:49:27;9.20;99.90
54264;DHT22;40178;53.042;6.406;2022-11-12T11:52:01;9.30;99.90
54264;DHT22;40178;53.042;6.406;2022-11-12T11:57:22;9.20;99.90
54264;DHT22;40178;53.042;6.406;2022-11-12T12:05:39;9.30;99.90
54264;DHT22;40178;53.042;6.406;2022-11-12T12:08:18;9.40;99.90
54264;DHT22;40178;53.042;6.406;2022-11-12T12:11:01;9.30;99.90
54264;DHT22;40178;53.042;6.406;2022-11-12T12:22:03;9.60;99.90
54264;DHT22;40178;53.042;6.406;2022-11-12T12:27:50;9.60;99.90
54264;DHT22;40178;53.042;6.406;2022-11-12T12:30:22;9.40;99.90
54264;DHT22;40178;53.042;6.406;2022-11-12T12:32:59;9.50;99.90
54264;DHT22;40178;53.042;6.406;2022-11-12T12:35:32;9.50;99.90
54264;DHT22;40178;53.042;6.406;2022-11-12T12:43:32;9.80;99.90
54264;DHT22;40178;53.042;6.406;2022-11-12T12:45:59;9.60;99.90
54264;DHT22;40178;53.042;6.406;2022-11-12T12:48:34;9.50;99.90
54264;DHT22;40178;53.042;6.406;2022-11-12T12:51:02;9.40;99.90
54264;DHT22;40178;53.042;6.406;2022-11-12T12:55:55;9.40;99.90
54264;DHT22;40178;53.042;6.406;2022-11-12T13:01:02;9.40;99.90
54264;DHT22;40178;53.042;6.406;2022-11-12T13:03:44;9.50;99.90
54264;DHT22;40178;53.042;6.406;2022-11-12T13:08:59;9.40;99.90
54264;DHT22;40178;53.042;6.406;2022-11-12T13:50:58;9.60;99.90
54264;DHT22;40178;53.042;6.406;2022-11-12T13:53:27;9.60;99.90
54264;DHT22;40178;53.042;6.406;2022-11-12T13:55:54;9.60;99.90
54264;DHT22;40178;53.042;6.406;2022-11-12T13:58:29;9.70;99.90
54264;DHT22;40178;53.042;6.406;2022-11-12T14:01:00;9.70;99.90
54264;DHT22;40178;53.042;6.406;2022-11-12T14:03:44;9.60;99.90
54264;DHT22;40178;53.042;6.406;2022-11-12T14:14:04;9.80;99.90
54264;DHT22;40178;53.042;6.406;2022-11-12T14:20:11;9.70;99.90
54264;DHT22;40178;53.042;6.406;2022-11-12T14:22:44;9.70;99.90
54264;DHT22;40178;53.042;6.406;2022-11-12T14:25:17;9.50;99.90
54264;DHT22;40178;53.042;6.406;2022-11-12T14:27:44;10.10;99.90
54264;DHT22;40178;53.042;6.406;2022-11-12T14:32:41;9.50;99.90
54264;DHT22;40178;53.042;6.406;2022-11-12T14:35:19;9.50;99.90
54264;DHT22;40178;53.042;6.406;2022-11-12T14:37:49;9.50;99.90
54264;DHT22;40178;53.042;6.406;2022-11-12T14:40:17;9.50;99.90
54264;DHT22;40178;53.042;6.406;2022-11-12T14:42:43;9.60;99.90
54264;DHT22;40178;53.042;6.406;2022-11-12T14:45:17;9.60;99.90
54264;DHT22;40178;53.042;6.406;2022-11-12T14:47:44;9.40;99.90
54264;DHT22;40178;53.042;6.406;2022-11-12T14:50:31;9.40;99.90
54264;DHT22;40178;53.042;6.406;2022-11-12T14:53:01;9.40;99.90
54264;DHT22;40178;53.042;6.406;2022-11-12T14:55:35;9.40;99.90
54264;DHT22;40178;53.042;6.406;2022-11-12T14:58:02;9.40;99.90
54264;DHT22;40178;53.042;6.406;2022-11-12T15:02:55;9.50;99.90
54264;DHT22;40178;53.042;6.406;2022-11-12T15:05:21;9.30;99.90
54264;DHT22;40178;53.042;6.406;2022-11-12T15:08:26;9.40;99.90
54264;DHT22;40178;53.042;6.406;2022-11-12T15:10:51;9.40;99.90
54264;DHT22;40178;53.042;6.406;2022-11-12T15:13:22;9.30;99.90
54264;DHT22;40178;53.042;6.406;2022-11-12T15:15:55;9.30;99.90
54264;DHT22;40178;53.042;6.406;2022-11-12T15:18:26;9.20;99.90
54264;DHT22;40178;53.042;6.406;2022-11-12T15:21:13;9.30;99.90
54264;DHT22;40178;53.042;6.406;2022-11-12T15:24:01;9.20;99.90
54264;DHT22;40178;53.042;6.406;2022-11-12T15:29:10;9.10;99.90
54264;DHT22;40178;53.042;6.406;2022-11-12T15:31:47;9.10;99.90
54264;DHT22;40178;53.042;6.406;2022-11-12T15:34:33;9.00;99.90
54264;DHT22;40178;53.042;6.406;2022-11-12T15:37:07;9.00;99.90
54264;DHT22;40178;53.042;6.406;2022-11-12T15:39:38;8.80;99.90
54264;DHT22;40178;53.042;6.406;2022-11-12T15:42:21;8.90;99.90
54264;DHT22;40178;53.042;6.406;2022-11-12T15:44:50;8.70;99.90
54264;DHT22;40178;53.042;6.406;2022-11-12T15:47:23;8.60;99.90
54264;DHT22;40178;53.042;6.406;2022-11-12T15:49:53;8.70;99.90
54264;DHT22;40178;53.042;6.406;2022-11-12T15:52:19;8.70;99.90
54264;DHT22;40178;53.042;6.406;2022-11-12T15:54:45;8.50;99.90
54264;DHT22;40178;53.042;6.406;2022-11-12T15:57:14;8.40;99.90
54264;DHT22;40178;53.042;6.406;2022-11-12T15:59:41;8.60;99.90
54264;DHT22;40178;53.042;6.406;2022-11-12T16:02:13;8.40;99.90
54264;DHT22;40178;53.042;6.406;2022-11-12T16:04:39;8.50;99.90
54264;DHT22;40178;53.042;6.406;2022-11-12T16:07:05;8.30;99.90
54264;DHT22;40178;53.042;6.406;2022-11-12T16:09:32;8.20;99.90
54264;DHT22;40178;53.042;6.406;2022-11-12T16:11:58;8.30;99.90
54264;DHT22;40178;53.042;6.406;2022-11-12T16:14:25;8.20;99.90
54264;DHT22;40178;53.042;6.406;2022-11-12T16:16:51;8.10;99.90
54264;DHT22;40178;53.042;6.406;2022-11-12T16:19:16;8.20;99.90
54264;DHT22;40178;53.042;6.406;2022-11-12T16:21:42;8.00;99.90
54264;DHT22;40178;53.042;6.406;2022-11-12T16:24:08;8.00;99.90
54264;DHT22;40178;53.042;6.406;2022-11-12T16:26:33;8.00;99.90
54264;DHT22;40178;53.042;6.406;2022-11-12T16:29:00;7.80;99.90
54264;DHT22;40178;53.042;6.406;2022-11-12T16:31:25;7.80;99.90
54264;DHT22;40178;53.042;6.406;2022-11-12T16:33:51;7.70;99.90
54264;DHT22;40178;53.042;6.406;2022-11-12T16:36:17;7.90;99.90
54264;DHT22;40178;53.042;6.406;2022-11-12T16:38:44;7.80;99.90
54264;DHT22;40178;53.042;6.406;2022-11-12T16:41:11;7.80;99.90
54264;DHT22;40178;53.042;6.406;2022-11-12T16:43:37;7.80;99.90
54264;DHT22;40178;53.042;6.406;2022-11-12T16:46:12;7.80;99.90
54264;DHT22;40178;53.042;6.406;2022-11-12T16:48:38;7.60;99.90
54264;DHT22;40178;53.042;6.406;2022-11-12T16:51:04;7.50;99.90
54264;DHT22;40178;53.042;6.406;2022-11-12T16:53:29;7.50;99.90
54264;DHT22;40178;53.042;6.406;2022-11-12T16:55:56;7.60;99.90
54264;DHT22;40178;53.042;6.406;2022-11-12T16:58:21;8.40;99.90
54264;DHT22;40178;53.042;6.406;2022-11-12T17:00:47;7.30;99.90
54264;DHT22;40178;53.042;6.406;2022-11-12T17:03:14;7.30;99.90
54264;DHT22;40178;53.042;6.406;2022-11-12T17:05:40;7.40;99.90
54264;DHT22;40178;53.042;6.406;2022-11-12T17:08:07;7.40;99.90
54264;DHT22;40178;53.042;6.406;2022-11-12T17:10:33;7.20;99.90
54264;DHT22;40178;53.042;6.406;2022-11-12T17:12:59;7.40;99.90
54264;DHT22;40178;53.042;6.406;2022-11-12T17:15:24;7.20;99.90
54264;DHT22;40178;53.042;6.406;2022-11-12T17:17:52;7.20;99.90
54264;DHT22;40178;53.042;6.406;2022-11-12T17:20:18;7.20;99.90
54264;DHT22;40178;53.042;6.406;2022-11-12T17:22:44;7.10;99.90
54264;DHT22;40178;53.042;6.406;2022-11-12T17:25:09;7.10;99.90
54264;DHT22;40178;53.042;6.406;2022-11-12T17:27:35;7.10;99.90
54264;DHT22;40178;53.042;6.406;2022-11-12T17:30:01;7.00;99.90
54264;DHT22;40178;53.042;6.406;2022-11-12T17:32:27;7.00;99.90
54264;DHT22;40178;53.042;6.406;2022-11-12T17:34:52;7.00;99.90
54264;DHT22;40178;53.042;6.406;2022-11-12T17:37:18;6.90;99.90
54264;DHT22;40178;53.042;6.406;2022-11-12T17:39:43;6.90;99.90
54264;DHT22;40178;53.042;6.406;2022-11-12T17:42:09;6.90;99.90
54264;DHT22;40178;53.042;6.406;2022-11-12T17:44:34;7.00;99.90
54264;DHT22;40178;53.042;6.406;2022-11-12T17:47:00;6.90;99.90
54264;DHT22;40178;53.042;6.406;2022-11-12T17:49:27;6.80;99.90
54264;DHT22;40178;53.042;6.406;2022-11-12T17:51:52;6.70;99.90
54264;DHT22;40178;53.042;6.406;2022-11-12T17:54:19;6.80;99.90
54264;DHT22;40178;53.042;6.406;2022-11-12T17:56:44;6.70;99.90
54264;DHT22;40178;53.042;6.406;2022-11-12T17:59:10;6.80;99.90
54264;DHT22;40178;53.042;6.406;2022-11-12T18:01:35;6.70;99.90
54264;DHT22;40178;53.042;6.406;2022-11-12T18:04:02;6.50;99.90
54264;DHT22;40178;53.042;6.406;2022-11-12T18:06:30;6.70;99.90
54264;DHT22;40178;53.042;6.406;2022-11-12T18:09:04;6.60;99.90
54264;DHT22;40178;53.042;6.406;2022-11-12T18:11:36;6.60;99.90